메인 페이지
METAR-TAF:

METAR-TAF

공항 :

마리스칼 수크레 국제공항

키토, 에콰도르

위도: 0-06-48S, 경도: 78-21-31W, 고도: 2400m

현재 날씨관측

예보는 59분 전, 17:00시(UTC)에 발표되었습니다.
북북동5kt북북서풍과 풍을 오가는
온도 18°C
습도 68%
기압 1029 hPa
시정 10km 이상
고도 3000ft 상공 구름 많음
고도 10000ft 상공 구름 많음

METAR: SEQM 021700Z 03005KT 330V080 9999 BKN030 BKN100 18/12 Q1029 NOSIG RMK A3039

시각: 12:59 (17:59 UTC)

예보

예보는 1 시간 29분 전, 16:30시(UTC)에 발표되었습니다.
예보 대상 시간: 02일 18시부터 03일 18시까지 (UTC)
12kt
시정 10km 이상
고도 3000ft 상공 구름 많음
고도 10000ft 상공 구름 많음
일시적
02일 19시부터 02일 22시까지 (UTC)
고도 2600ft 상공 구름 조금, 타워링 적운.
고도 3000ft 상공 구름 많음
고도 10000ft 상공 구름 많음
소나기
전환 중
03일 00시부터 03일 01시까지 (UTC)
여러 방향의 바람 3kt
고도 500ft 상공 구름 보통
고도 2000ft 상공 구름 보통
고도 8000ft 상공 구름 많음
일시적
03일 06시부터 03일 09시까지 (UTC)
시정: 5000m
고도 500ft 상공 구름 많음
곳곳에 안개
전환 중
03일 11시부터 03일 13시까지 (UTC)
고도 3000ft 상공 구름 보통
고도 10000ft 상공 구름 많음

TAF: SEQM 021630Z 0218/0318 36012KT 9999 BKN030 BKN100 TEMPO 0219/0222 SHRA FEW026TCU BKN030 BKN100 BECMG 0300/0301 VRB03KT SCT005 SCT020 BKN080 TEMPO 0306/0309 5000 BCFG BKN005 BECMG 0311/0313 SCT030 BKN100 TX23/0219Z TN12/0311Z

4,000개 이상의 공항 관측 자료 및 예보 (METAR 및 TAF 보고).

지도상에서 검색 가능한 기상관측소가 노란 점과 빨간 점으로 표시되어 있습니다.

기상관측소 명을 보려면 표시 위로 마우스를 이동하세요.

날씨 관측과 예보를 보려면 클릭하세요.

지도 변경 : 확대하려면 엑스 표시가 있는 녹색 버튼, 축소하려면 빼기 표시가 있는 녹색 버튼, 다음 페이지의 지도를 보려면 녹색 화살표를 클릭하세요.


METAR-TAF: